createdAt,value
2018-12-01T00:00:05.196Z,92.31
2018-12-01T00:02:41.600Z,92.21
2018-12-01T00:05:18.217Z,92.47
2018-12-01T00:07:55.195Z,92.41
2018-12-01T00:10:32.090Z,92.16
2018-12-01T00:13:08.360Z,91.87
2018-12-01T00:15:44.969Z,92.00
2018-12-01T00:18:21.431Z,92.10
2018-12-01T00:20:58.049Z,92.41
2018-12-01T00:23:34.588Z,92.39
2018-12-01T00:26:10.532Z,92.47
2018-12-01T00:28:46.918Z,92.16
2018-12-01T00:31:24.123Z,92.49
2018-12-01T00:33:59.859Z,92.06
2018-12-01T00:36:36.585Z,92.41
2018-12-01T00:39:13.158Z,92.19
2018-12-01T00:41:51.777Z,92.32
2018-12-01T00:44:27.605Z,92.62
2018-12-01T00:47:04.265Z,92.28
2018-12-01T00:49:40.652Z,92.61
2018-12-01T00:52:17.210Z,92.67
2018-12-01T00:54:53.570Z,92.34
2018-12-01T00:57:29.894Z,92.61
2018-12-01T01:00:11.481Z,92.56
2018-12-01T01:02:52.616Z,92.51
2018-12-01T01:05:32.782Z,92.42
2018-12-01T01:08:10.109Z,92.55
2018-12-01T01:10:46.450Z,92.35
2018-12-01T01:13:22.924Z,92.61
2018-12-01T01:16:00.343Z,92.14
2018-12-01T01:18:37.345Z,92.05
2018-12-01T01:21:13.843Z,91.93
2018-12-01T01:23:49.978Z,92.01
2018-12-01T01:26:26.401Z,92.52
2018-12-01T01:29:03.023Z,92.40
2018-12-01T01:31:39.214Z,92.21
2018-12-01T01:34:15.847Z,92.26
2018-12-01T01:36:52.791Z,92.33
2018-12-01T01:39:29.383Z,92.52
2018-12-01T01:42:06.310Z,92.25
2018-12-01T01:44:42.597Z,92.41
2018-12-01T01:47:19.013Z,92.55
2018-12-01T01:49:55.015Z,92.59
2018-12-01T01:52:31.519Z,92.02
2018-12-01T01:55:11.667Z,92.04
2018-12-01T01:57:47.932Z,92.32
2018-12-01T02:00:24.580Z,92.06
2018-12-01T02:03:00.471Z,91.94
2018-12-01T02:05:36.918Z,92.06
2018-12-01T02:08:13.553Z,92.27
2018-12-01T02:10:49.944Z,92.19
2018-12-01T02:13:26.499Z,92.55
2018-12-01T02:16:04.417Z,92.06
2018-12-01T02:18:41.312Z,92.13
2018-12-01T02:21:17.731Z,92.41
2018-12-01T02:23:53.970Z,92.10
2018-12-01T02:26:30.280Z,92.09
2018-12-01T02:29:06.640Z,92.23
2018-12-01T02:31:43.237Z,92.44
2018-12-01T02:34:20.051Z,92.16
2018-12-01T02:36:56.385Z,92.23
2018-12-01T02:39:33.249Z,92.41
2018-12-01T02:42:09.829Z,92.36
2018-12-01T02:45:12.309Z,92.41
2018-12-01T02:47:48.439Z,92.39
2018-12-01T02:50:30.161Z,92.68
2018-12-01T02:53:06.604Z,92.56
2018-12-01T02:55:43.015Z,92.19
2018-12-01T02:58:19.346Z,92.39
2018-12-01T03:00:56.122Z,92.25
2018-12-01T03:03:32.304Z,92.33
2018-12-01T03:06:09.059Z,92.41
2018-12-01T03:08:45.343Z,92.31
2018-12-01T03:11:21.561Z,92.02
2018-12-01T03:13:57.833Z,92.37
2018-12-01T03:16:34.456Z,92.11
2018-12-01T03:19:10.830Z,92.04
2018-12-01T03:21:47.659Z,92.06
2018-12-01T03:24:24.444Z,91.74
2018-12-01T03:27:00.903Z,92.11
2018-12-01T03:29:37.756Z,91.90
2018-12-01T03:32:14.469Z,91.60
2018-12-01T03:34:51.893Z,91.99
2018-12-01T03:37:28.713Z,91.65
2018-12-01T03:40:06.319Z,92.00
2018-12-01T03:42:42.934Z,91.60
2018-12-01T03:45:20.885Z,91.47
2018-12-01T03:47:57.342Z,91.38
2018-12-01T03:50:34.050Z,91.64
2018-12-01T03:53:11.982Z,91.04
2018-12-01T03:55:48.411Z,91.07
2018-12-01T03:58:25.048Z,91.19
2018-12-01T04:01:01.484Z,91.71
2018-12-01T04:03:38.050Z,92.26
2018-12-01T04:06:14.757Z,91.87
2018-12-01T04:08:51.454Z,91.91
2018-12-01T04:11:27.932Z,92.36
2018-12-01T04:14:04.768Z,92.23
2018-12-01T04:16:41.481Z,92.85
2018-12-01T04:19:17.820Z,92.79
2018-12-01T04:21:54.278Z,92.53
2018-12-01T04:24:30.536Z,93.04
2018-12-01T04:27:06.906Z,92.71
2018-12-01T04:29:43.346Z,92.50
2018-12-01T04:32:20.341Z,92.11
2018-12-01T04:34:56.673Z,92.29
2018-12-01T04:37:32.965Z,92.20
2018-12-01T04:40:10.469Z,92.33
2018-12-01T04:42:47.766Z,92.64
2018-12-01T04:45:23.961Z,92.27
2018-12-01T04:48:00.533Z,92.47
2018-12-01T04:50:36.914Z,92.54
2018-12-01T04:53:13.446Z,92.71
2018-12-01T04:55:49.800Z,92.66
2018-12-01T04:58:26.119Z,92.37
2018-12-01T05:01:02.083Z,92.74
2018-12-01T05:03:38.333Z,92.82
2018-12-01T05:06:14.858Z,93.18
2018-12-01T05:08:51.198Z,92.67
2018-12-01T05:11:28.074Z,92.55
2018-12-01T05:14:04.553Z,92.41
2018-12-01T05:16:41.002Z,92.54
2018-12-01T05:19:17.119Z,92.19
2018-12-01T05:21:53.777Z,92.65
2018-12-01T05:24:29.964Z,92.71
2018-12-01T05:27:06.692Z,92.79
2018-12-01T05:29:43.376Z,92.87
2018-12-01T05:32:19.983Z,92.99
2018-12-01T05:34:56.726Z,92.91
2018-12-01T05:37:33.477Z,92.85
2018-12-01T05:40:12.997Z,93.16
2018-12-01T05:42:49.470Z,92.74
2018-12-01T05:45:25.744Z,92.86
2018-12-01T05:48:02.236Z,92.77
2018-12-01T05:50:38.919Z,93.02
2018-12-01T05:53:15.468Z,93.10
2018-12-01T05:55:52.024Z,93.43
2018-12-01T05:58:28.487Z,92.72
2018-12-01T06:01:05.064Z,92.60
2018-12-01T06:03:41.803Z,92.87
2018-12-01T06:06:18.205Z,92.70
2018-12-01T06:08:54.557Z,92.52
2018-12-01T06:11:30.670Z,92.88
2018-12-01T06:14:07.083Z,92.55
2018-12-01T06:16:43.332Z,92.91
2018-12-01T06:19:19.851Z,92.60
2018-12-01T06:21:55.982Z,92.92
2018-12-01T06:24:33.321Z,93.05
2018-12-01T06:27:09.907Z,92.75
2018-12-01T06:29:46.287Z,93.11
2018-12-01T06:32:23.017Z,92.49
2018-12-01T06:34:54.421Z,92.62
2018-12-01T06:37:30.695Z,92.53
2018-12-01T06:40:12.143Z,92.60
2018-12-01T06:42:48.132Z,92.48
2018-12-01T06:45:24.321Z,92.36
2018-12-01T06:48:00.699Z,92.48
2018-12-01T06:50:37.165Z,92.48
2018-12-01T06:53:13.794Z,92.38
2018-12-01T06:55:50.219Z,92.46
2018-12-01T06:58:26.845Z,92.44
2018-12-01T07:01:03.393Z,92.32
2018-12-01T07:03:39.816Z,92.52
2018-12-01T07:06:16.260Z,92.43
2018-12-01T07:08:52.621Z,92.69
2018-12-01T07:11:28.569Z,92.53
2018-12-01T07:14:05.244Z,92.74
2018-12-01T07:16:41.665Z,92.80
2018-12-01T07:19:19.567Z,92.60
2018-12-01T07:21:55.258Z,92.57
2018-12-01T07:24:31.978Z,92.19
2018-12-01T07:27:08.477Z,92.64
2018-12-01T07:29:44.725Z,92.56
2018-12-01T07:32:21.299Z,92.70
2018-12-01T07:34:58.128Z,92.45
2018-12-01T07:37:34.482Z,92.60
2018-12-01T07:40:14.922Z,92.72
2018-12-01T07:42:51.642Z,92.83
2018-12-01T07:45:28.140Z,92.71
2018-12-01T07:48:04.656Z,92.79
2018-12-01T07:50:40.994Z,92.81
2018-12-01T07:53:17.499Z,92.46
2018-12-01T07:55:53.825Z,92.03
2018-12-01T07:58:30.189Z,92.40
2018-12-01T08:01:06.870Z,91.92
2018-12-01T08:03:43.301Z,91.66
2018-12-01T08:06:19.876Z,91.16
2018-12-01T08:08:56.191Z,91.54
2018-12-01T08:11:32.658Z,92.31
2018-12-01T08:14:09.257Z,91.76
2018-12-01T08:16:46.137Z,93.04
2018-12-01T08:19:23.352Z,93.31
2018-12-01T08:21:59.926Z,90.25
2018-12-01T08:24:36.428Z,89.18
2018-12-01T08:27:13.071Z,83.59
2018-12-01T08:29:49.426Z,80.17
2018-12-01T08:32:26.223Z,72.31
2018-12-01T08:35:02.539Z,75.47
2018-12-01T08:37:38.593Z,72.26
2018-12-01T08:40:17.016Z,74.35
2018-12-01T08:42:54.543Z,73.15
2018-12-01T08:45:31.146Z,69.78
2018-12-01T08:48:09.175Z,66.29
2018-12-01T08:50:46.363Z,64.80
2018-12-01T08:53:21.992Z,64.40
2018-12-01T08:55:58.659Z,63.14
2018-12-01T08:58:35.683Z,60.90
2018-12-01T09:01:12.371Z,58.14
2018-12-01T09:03:49.012Z,57.10
2018-12-01T09:06:26.020Z,56.55
2018-12-01T09:09:02.826Z,63.89
2018-12-01T09:11:39.066Z,67.03
2018-12-01T09:14:15.908Z,68.13
2018-12-01T09:16:52.367Z,60.99
2018-12-01T09:19:28.980Z,61.34
2018-12-01T09:22:05.821Z,64.87
2018-12-01T09:24:42.477Z,72.60
2018-12-01T09:27:22.472Z,74.37
2018-12-01T09:29:55.677Z,74.77
2018-12-01T09:32:31.866Z,72.65
2018-12-01T09:35:08.528Z,72.46
2018-12-01T09:37:45.106Z,77.89
2018-12-01T09:40:23.217Z,77.78
2018-12-01T09:42:59.920Z,76.48
2018-12-01T09:45:36.355Z,75.90
2018-12-01T09:48:13.229Z,78.03
2018-12-01T09:50:49.691Z,76.45
2018-12-01T09:53:26.327Z,74.82
2018-12-01T09:56:03.038Z,77.29
2018-12-01T09:58:39.376Z,81.20
2018-12-01T10:01:16.671Z,76.67
2018-12-01T10:03:53.491Z,72.81
2018-12-01T10:06:29.490Z,70.33
2018-12-01T10:09:08.820Z,66.86
2018-12-01T10:11:50.329Z,75.54
2018-12-01T10:14:21.266Z,79.73
2018-12-01T10:16:57.678Z,77.88
2018-12-01T10:19:34.043Z,77.74
2018-12-01T10:22:10.755Z,74.05
2018-12-01T10:24:48.095Z,72.88
2018-12-01T10:27:24.387Z,71.33
2018-12-01T10:30:00.659Z,75.46
2018-12-01T10:32:37.333Z,77.51
2018-12-01T10:35:18.098Z,76.42
2018-12-01T10:38:30.659Z,73.14
2018-12-01T10:41:07.308Z,66.95
2018-12-01T10:43:43.763Z,67.41
2018-12-01T10:46:20.199Z,63.64
2018-12-01T10:48:57.105Z,61.54
2018-12-01T10:51:33.670Z,59.89
2018-12-01T10:54:10.581Z,58.99
2018-12-01T10:56:47.781Z,58.50
2018-12-01T10:59:24.397Z,56.74
2018-12-01T11:02:06.102Z,56.08
2018-12-01T11:04:43.147Z,56.04
2018-12-01T11:07:20.424Z,53.87
2018-12-01T11:09:57.882Z,52.93
2018-12-01T11:12:35.102Z,54.06
2018-12-01T11:15:11.955Z,53.90
2018-12-01T11:17:48.407Z,54.97
2018-12-01T11:20:25.230Z,48.91
2018-12-01T11:23:01.585Z,49.43
2018-12-01T11:25:38.309Z,48.98
2018-12-01T11:28:15.218Z,50.88
2018-12-01T11:30:51.902Z,49.29
2018-12-01T11:33:28.561Z,50.74
2018-12-01T11:36:05.226Z,54.27
2018-12-01T11:38:41.666Z,55.46
2018-12-01T11:41:18.945Z,57.88
2018-12-01T11:43:56.447Z,55.46
2018-12-01T11:46:33.174Z,59.12
2018-12-01T11:49:10.147Z,60.39
2018-12-01T11:51:48.349Z,57.68
2018-12-01T11:54:25.155Z,55.96
2018-12-01T11:57:02.098Z,55.27
2018-12-01T11:59:39.213Z,56.30
2018-12-01T12:02:17.289Z,55.21
2018-12-01T12:04:54.547Z,54.79
2018-12-01T12:07:47.449Z,54.09
2018-12-01T12:10:24.619Z,54.17
2018-12-01T12:13:01.469Z,50.32
2018-12-01T12:15:38.161Z,49.67
2018-12-01T12:18:15.567Z,48.39
2018-12-01T12:20:52.691Z,50.17
2018-12-01T12:23:29.661Z,54.42
2018-12-01T12:26:06.678Z,57.33
2018-12-01T12:28:43.801Z,55.02
2018-12-01T12:31:21.056Z,55.15
2018-12-01T12:33:58.691Z,55.93
2018-12-01T12:36:36.833Z,56.80
2018-12-01T12:39:13.162Z,60.04
2018-12-01T12:41:49.785Z,58.67
2018-12-01T12:44:26.400Z,55.47
2018-12-01T12:47:02.960Z,59.47
2018-12-01T12:49:39.501Z,57.89
2018-12-01T12:52:16.295Z,57.92
2018-12-01T12:54:52.965Z,59.13
2018-12-01T12:57:29.415Z,61.90
2018-12-01T13:00:10.052Z,55.62
2018-12-01T13:02:51.326Z,57.37
2018-12-01T13:05:32.637Z,59.61
2018-12-01T13:08:10.409Z,59.40
2018-12-01T13:10:46.937Z,59.55
2018-12-01T13:13:23.894Z,58.97
2018-12-01T13:16:00.499Z,58.71
2018-12-01T13:18:36.687Z,59.22
2018-12-01T13:21:13.072Z,59.37
2018-12-01T13:23:49.721Z,60.13
2018-12-01T13:26:26.208Z,61.22
2018-12-01T13:29:02.999Z,60.43
2018-12-01T13:31:39.623Z,61.20
2018-12-01T13:34:16.267Z,62.56
2018-12-01T13:36:53.442Z,64.64
2018-12-01T13:39:29.948Z,64.85
2018-12-01T13:42:07.175Z,65.23
2018-12-01T13:44:43.552Z,61.73
2018-12-01T13:47:19.973Z,60.41
2018-12-01T13:49:56.362Z,61.62
2018-12-01T13:52:32.836Z,63.13
2018-12-01T13:55:10.580Z,62.83
2018-12-01T13:57:47.571Z,64.14
2018-12-01T14:00:26.598Z,63.13
2018-12-01T14:03:02.927Z,64.16
2018-12-01T14:05:40.373Z,64.85
2018-12-01T14:08:17.074Z,66.21
2018-12-01T14:10:53.847Z,60.86
2018-12-01T14:13:30.525Z,61.14
2018-12-01T14:16:07.187Z,61.09
2018-12-01T14:18:43.868Z,61.78
2018-12-01T14:21:20.237Z,62.81
2018-12-01T14:23:56.928Z,59.98
2018-12-01T14:26:33.589Z,61.00
2018-12-01T14:29:10.269Z,61.10
2018-12-01T14:31:46.887Z,61.88
2018-12-01T14:34:23.505Z,61.54
2018-12-01T14:37:00.196Z,61.78
2018-12-01T14:39:36.892Z,62.94
2018-12-01T14:42:13.474Z,62.97
2018-12-01T14:44:49.488Z,65.18
2018-12-01T14:47:25.265Z,64.91
2018-12-01T14:50:01.576Z,65.02
2018-12-01T14:52:37.941Z,65.16
2018-12-01T14:55:17.000Z,66.00
2018-12-01T14:57:53.457Z,65.29
2018-12-01T15:00:29.870Z,64.07
2018-12-01T15:03:06.783Z,64.57
2018-12-01T15:05:43.672Z,63.58
2018-12-01T15:08:20.630Z,64.48
2018-12-01T15:10:57.405Z,64.92
2018-12-01T15:13:33.821Z,66.21
2018-12-01T15:16:10.716Z,68.72
2018-12-01T15:18:47.217Z,67.34
2018-12-01T15:21:23.920Z,67.02
2018-12-01T15:24:00.720Z,69.71
2018-12-01T15:26:37.076Z,70.39
2018-12-01T15:29:13.648Z,69.62
2018-12-01T15:31:50.403Z,71.51
2018-12-01T15:34:27.692Z,72.82
2018-12-01T15:37:04.770Z,72.99
2018-12-01T15:39:41.313Z,74.52
2018-12-01T15:42:17.890Z,72.65
2018-12-01T15:44:54.207Z,74.20
2018-12-01T15:47:31.691Z,73.66
2018-12-01T15:50:14.737Z,73.55
2018-12-01T15:52:55.097Z,72.22
2018-12-01T15:55:32.128Z,73.82
2018-12-01T15:58:09.722Z,74.13
2018-12-01T16:00:46.806Z,73.98
2018-12-01T16:03:23.306Z,74.98
2018-12-01T16:05:59.834Z,75.14
2018-12-01T16:08:36.258Z,74.98
2018-12-01T16:11:12.666Z,74.61
2018-12-01T16:13:49.105Z,74.87
2018-12-01T16:16:25.120Z,75.19
2018-12-01T16:19:01.323Z,74.52
2018-12-01T16:21:37.533Z,75.75
2018-12-01T16:24:13.664Z,76.38
2018-12-01T16:26:49.437Z,77.46
2018-12-01T16:29:25.173Z,77.98
2018-12-01T16:32:01.071Z,77.80
2018-12-01T16:34:37.155Z,77.95
2018-12-01T16:37:13.006Z,77.83
2018-12-01T16:39:48.956Z,78.82
2018-12-01T16:42:24.913Z,78.70
2018-12-01T16:45:00.863Z,79.35
2018-12-01T16:47:36.817Z,79.74
2018-12-01T16:50:15.645Z,78.68
2018-12-01T16:52:51.988Z,78.56
2018-12-01T16:55:27.808Z,78.36
2018-12-01T16:58:03.932Z,79.15
2018-12-01T17:00:39.907Z,79.45
2018-12-01T17:03:16.203Z,79.10
2018-12-01T17:05:56.268Z,79.61
2018-12-01T17:08:32.031Z,79.02
2018-12-01T17:11:09.483Z,80.20
2018-12-01T17:13:45.528Z,79.95
2018-12-01T17:16:21.689Z,79.25
2018-12-01T17:18:57.613Z,79.81
2018-12-01T17:21:33.596Z,80.22
2018-12-01T17:24:09.606Z,79.80
2018-12-01T17:26:45.362Z,79.36
2018-12-01T17:29:21.329Z,79.28
2018-12-01T17:31:57.081Z,79.73
2018-12-01T17:34:33.101Z,79.99
2018-12-01T17:37:09.148Z,80.53
2018-12-01T17:39:45.023Z,80.87
2018-12-01T17:42:21.007Z,80.35
2018-12-01T17:44:56.871Z,78.42
2018-12-01T17:47:33.142Z,78.33
2018-12-01T17:50:14.434Z,78.79
2018-12-01T17:52:53.777Z,79.58
2018-12-01T17:55:31.159Z,79.73
2018-12-01T17:58:11.068Z,79.50
2018-12-01T18:00:46.904Z,80.26
2018-12-01T18:03:22.854Z,80.73
2018-12-01T18:05:58.833Z,80.51
2018-12-01T18:08:35.183Z,80.11
2018-12-01T18:11:12.187Z,79.81
2018-12-01T18:13:47.973Z,80.08
2018-12-01T18:16:23.846Z,79.85
2018-12-01T18:18:59.684Z,79.50
2018-12-01T18:21:35.568Z,79.67
2018-12-01T18:24:11.537Z,80.04
2018-12-01T18:26:47.412Z,80.31
2018-12-01T18:29:23.392Z,80.14
2018-12-01T18:31:59.217Z,80.11
2018-12-01T18:34:35.065Z,79.79
2018-12-01T18:37:11.564Z,80.20
2018-12-01T18:39:47.409Z,80.12
2018-12-01T18:42:23.505Z,80.48
2018-12-01T18:44:59.253Z,80.50
2018-12-01T18:47:35.275Z,80.27
2018-12-01T18:50:14.787Z,80.01
2018-12-01T18:53:06.828Z,79.42
2018-12-01T18:55:56.382Z,79.74
2018-12-01T18:58:32.295Z,80.11
2018-12-01T19:01:10.386Z,79.84
2018-12-01T19:03:46.131Z,79.58
2018-12-01T19:06:22.181Z,79.72
2018-12-01T19:08:58.228Z,80.10
2018-12-01T19:11:34.091Z,80.23
2018-12-01T19:14:10.101Z,80.15
2018-12-01T19:16:45.930Z,80.45
2018-12-01T19:19:21.989Z,80.02
2018-12-01T19:21:58.225Z,80.16
2018-12-01T19:24:34.145Z,77.83
2018-12-01T19:27:10.064Z,77.59
2018-12-01T19:29:45.930Z,79.18
2018-12-01T19:32:21.880Z,80.40
2018-12-01T19:34:57.699Z,79.90
2018-12-01T19:37:33.591Z,79.86
2018-12-01T19:40:15.239Z,80.18
2018-12-01T19:42:51.338Z,78.07
2018-12-01T19:45:27.508Z,77.29
2018-12-01T19:48:03.375Z,78.31
2018-12-01T19:50:41.717Z,79.19
2018-12-01T19:53:18.968Z,79.39
2018-12-01T19:55:55.586Z,78.86
2018-12-01T19:58:31.680Z,79.17
2018-12-01T20:01:07.969Z,79.13
2018-12-01T20:03:43.765Z,79.39
2018-12-01T20:06:19.676Z,79.18
2018-12-01T20:08:55.408Z,78.14
2018-12-01T21:01:19.735Z,72.14
2018-12-01T21:03:55.425Z,71.51
2018-12-01T21:06:31.210Z,70.64
2018-12-01T21:09:10.282Z,69.91
2018-12-01T21:11:46.748Z,72.19
2018-12-01T21:14:29.424Z,71.78
2018-12-01T21:17:09.597Z,71.97
2018-12-01T21:19:46.619Z,72.39
2018-12-01T21:23:14.018Z,71.88
2018-12-01T21:25:49.904Z,71.58
2018-12-01T21:28:25.714Z,68.27
2018-12-01T21:31:01.761Z,71.70
2018-12-01T21:33:37.824Z,73.19
2018-12-01T21:36:13.835Z,71.35
2018-12-01T21:38:49.549Z,70.44
2018-12-01T21:41:25.388Z,67.25
2018-12-01T21:44:01.629Z,66.55
2018-12-01T21:46:37.587Z,64.86
2018-12-01T21:49:13.663Z,62.32
2018-12-01T21:51:49.466Z,63.05
2018-12-01T21:54:25.370Z,59.38
2018-12-01T21:57:01.974Z,60.00
2018-12-01T21:59:37.093Z,61.32
2018-12-01T22:02:12.984Z,58.99
2018-12-01T22:04:48.764Z,54.38
2018-12-01T22:07:24.585Z,55.22
2018-12-01T22:10:00.489Z,57.96
2018-12-01T22:12:36.250Z,58.06
2018-12-01T22:15:20.994Z,54.59
2018-12-01T22:17:56.885Z,57.40
2018-12-01T22:20:32.969Z,56.47
2018-12-01T22:23:09.037Z,55.88
2018-12-01T22:25:44.995Z,55.72
2018-12-01T22:28:20.951Z,56.08
2018-12-01T22:30:57.872Z,52.15
2018-12-01T22:33:33.841Z,51.88
2018-12-01T22:36:09.680Z,55.60
2018-12-01T22:38:45.496Z,52.72
2018-12-01T22:41:21.405Z,49.73
